Gener8 Ares — V7MK5 — position and weather

sailwx.info

Track history (hours):
 
Tides and Currents Weather Stations Pressure Air Temp Water Temp Dewpoint Dewpoint Depression Visibility Wind Speed Wind Dir Waves Ship Positions

Gener8 Ares

Last reported at 2017-Dec-30 10:16 UTC. Time now 2018-Jan-18 07:55 UTC.
Position N 01°19' E 103°20'.
Warning: this ship's position is 18 days out of date.

Length 336 m; draft 11 m.

Type: Tanker. MMSI: 538006375.

Date/timePositionNaut miles runAvg speedWind from/ knotsBaromVisibWave heightAir tempDewpointWater temp
2017-Dec-30 10:16N 01°19' E 103°20'310.4
2017-Dec-30 09:59N 01°17' E 103°22'510.9
2017-Dec-30 09:30N 01°14' E 103°27'612.1
2017-Dec-30 08:59N 01°13' E 103°33'612.4
2017-Dec-30 08:30N 01°11' E 103°38'612.1
2017-Dec-30 08:00N 01°09' E 103°44'611.9
2017-Dec-30 07:30N 01°11' E 103°49'611.2
2017-Dec-30 07:00N 01°13' E 103°54'3 5.4
2017-Dec-30 06:30N 01°15' E 103°56'1 2.5
2017-Dec-30 05:58N 01°14' E 103°55'0 0.1
2017-Dec-30 05:25N 01°14' E 103°55'0 0.0
2017-Dec-30 04:49N 01°14' E 103°55'0 0.1
2017-Dec-30 04:22N 01°14' E 103°55'0 0.1
2017-Dec-30 03:55N 01°14' E 103°55'0 0.0
2017-Dec-30 03:22N 01°14' E 103°55'0 0.0
2017-Dec-30 02:55N 01°14' E 103°55'0 0.1
2017-Dec-30 02:10N 01°14' E 103°55'0 0.0
2017-Dec-30 01:58N 01°14' E 103°55'0 0.0
2017-Dec-30 01:28N 01°14' E 103°55'0 0.0
2017-Dec-30 00:52N 01°14' E 103°55'0 0.0
2017-Dec-30 00:22N 01°14' E 103°55'0 0.0
2017-Dec-29 23:55N 01°14' E 103°55'0 0.0
2017-Dec-29 23:19N 01°14' E 103°55'0 0.0
2017-Dec-29 22:52N 01°14' E 103°55'0 0.0
2017-Dec-29 22:28N 01°14' E 103°55'0 0.1
2017-Dec-29 21:58N 01°14' E 103°55'0 0.0
2017-Dec-29 21:25N 01°14' E 103°55'0 0.0
2017-Dec-29 20:49N 01°14' E 103°55'0 0.1
2017-Dec-29 20:28N 01°14' E 103°55'0 0.0
2017-Dec-29 19:58N 01°14' E 103°55'0 0.0
2017-Dec-29 19:22N 01°14' E 103°55'0 0.0
2017-Dec-29 18:55N 01°14' E 103°55'0 0.0
2017-Dec-29 18:25N 01°14' E 103°55'0 0.0
2017-Dec-29 17:22N 01°14' E 103°55'0 0.0
2017-Dec-29 16:58N 01°14' E 103°55'0 0.0
2017-Dec-29 16:25N 01°14' E 103°55'0 0.0
2017-Dec-29 15:52N 01°14' E 103°55'0 0.0
2017-Dec-29 15:28N 01°14' E 103°55'0 0.0
2017-Dec-29 14:52N 01°14' E 103°55'0 0.1
2017-Dec-29 14:28N 01°14' E 103°55'0 0.0
2017-Dec-29 13:58N 01°14' E 103°55'0 0.0
2017-Dec-29 13:13N 01°14' E 103°55'0 0.0
2017-Dec-29 12:58N 01°14' E 103°55'0 0.0
2017-Dec-29 12:28N 01°14' E 103°55'0 0.0
2017-Dec-29 11:46N 01°14' E 103°55'0 0.0
2017-Dec-29 11:25N 01°14' E 103°55'0 0.0
2017-Dec-29 10:58N 01°14' E 103°55'0 0.0
2017-Dec-29 10:28N 01°14' E 103°55'0 0.0
2017-Dec-29 09:46N 01°14' E 103°55'0 0.0
2017-Dec-29 09:16N 01°14' E 103°55'0 0.0
2017-Dec-29 08:58N 01°14' E 103°55'0 0.0
2017-Dec-29 08:22N 01°14' E 103°55'0 0.0
2017-Dec-29 07:40N 01°14' E 103°55'0 0.1
2017-Dec-29 07:28N 01°14' E 103°55'0 0.1
2017-Dec-29 06:58N 01°14' E 103°55'0 0.0
2017-Dec-29 06:16N 01°14' E 103°55'0 0.0
2017-Dec-29 05:58N 01°14' E 103°55'0 0.0
2017-Dec-29 05:13N 01°14' E 103°55'0 0.2
2017-Dec-29 04:55N 01°14' E 103°55'0 0.0
2017-Dec-29 04:28N 01°14' E 103°55'0 0.1
2017-Dec-29 03:58N 01°14' E 103°55'0 0.0
2017-Dec-29 03:13N 01°14' E 103°55'0 0.0
2017-Dec-29 02:49N 01°14' E 103°55'0 0.1
2017-Dec-29 00:58N 01°15' E 103°55'0 0.0
2017-Dec-29 00:13N 01°14' E 103°55'0 0.0
2017-Dec-28 23:43N 01°14' E 103°55'0 0.0
2017-Dec-28 23:25N 01°14' E 103°55'0 0.0
2017-Dec-28 22:58N 01°14' E 103°55'0 0.0
2017-Dec-28 22:22N 01°14' E 103°55'0 0.1
2017-Dec-28 21:58N 01°15' E 103°55'0 0.7
2017-Dec-28 21:30N 01°15' E 103°55'2 3.6
2017-Dec-28 20:58N 01°16' E 103°57'2 3.7
2017-Dec-28 20:30N 01°16' E 103°59'3 6.5
2017-Dec-28 19:59N 01°16' E 104°02'4 7.4
2017-Dec-28 19:30N 01°16' E 104°06'4 7.0
2017-Dec-28 18:58N 01°17' E 104°09'3 6.7
2017-Dec-28 18:30N 01°17' E 104°13'4 7.0
2017-Dec-28 17:57N 01°18' E 104°16'  
2017-Dec-21 21:58N 21°51' E 121°25'4 8.5
2017-Dec-21 21:30N 21°55' E 121°25'4 8.4
2017-Dec-21 21:00N 21°59' E 121°25'5 8.4
2017-Dec-21 20:27N 22°04' E 121°25'4 8.2
2017-Dec-21 20:00N 22°07' E 121°25'6 7.7
2017-Dec-21 19:15N 22°13' E 121°25'41 7.8
2017-Dec-21 14:02N 22°51' E 121°42'0 7.3
2017-Dec-21 14:00N 22°51' E 121°42'67 7.7
2017-Dec-21 05:23N 23°52' E 122°12'3 8.2
2017-Dec-21 05:00N 23°54' E 122°13'4 8.5
2017-Dec-21 04:30N 23°58' E 122°15'4 8.4
2017-Dec-21 04:00N 24°02' E 122°17'4 8.3
2017-Dec-21 03:31N 24°06' E 122°19'4 8.3
2017-Dec-21 03:00N 24°09' E 122°21'4 8.3
2017-Dec-21 02:30N 24°13' E 122°23'4 8.3
2017-Dec-21 02:00N 24°17' E 122°25'4 8.0
2017-Dec-21 01:30N 24°21' E 122°27'4 8.0
2017-Dec-21 01:01N 24°24' E 122°29'4 8.1
2017-Dec-21 00:30N 24°28' E 122°31'4 8.2
2017-Dec-21 00:00N 24°32' E 122°33'4 8.3
2017-Dec-20 23:30N 24°35' E 122°35'5 9.1
2017-Dec-20 23:00N 24°39' E 122°37'5 9.3
2017-Dec-20 22:30N 24°44' E 122°39'5 9.3
2017-Dec-20 22:00N 24°48' E 122°41'4 9.0
2017-Dec-20 21:30N 24°52' E 122°43'4 8.9
2017-Dec-20 21:01N 24°56' E 122°45'5 9.0
2017-Dec-20 20:30N 25°00' E 122°47'4 9.0
2017-Dec-20 20:00N 25°04' E 122°50'4 8.9
2017-Dec-20 19:30N 25°08' E 122°52'4 8.9
2017-Dec-20 19:00N 25°12' E 122°53'4 8.4
2017-Dec-20 18:30N 25°16' E 122°55'4 8.3
2017-Dec-20 18:00N 25°20' E 122°57'4 8.7
2017-Dec-20 17:30N 25°24' E 122°60'  
Track history (hours):
 
Tides and Currents Weather Stations Pressure Air Temp Water Temp Dewpoint Dewpoint Depression Visibility Wind Speed Wind Dir Waves Ship Positions

Gener8 Ares

Last reported at 2017-Dec-30 10:16 UTC. Time now 2018-Jan-18 07:55 UTC.
Position N 01°19' E 103°20'.
Warning: this ship's position is 18 days out of date.

Length 336 m; draft 11 m.

Type: Tanker. MMSI: 538006375.

Date/timePositionNaut miles runAvg speedWind from/ knotsBaromVisibWave heightAir tempDewpointWater temp
2017-Dec-30 10:16N 01°19' E 103°20'310.4
2017-Dec-30 09:59N 01°17' E 103°22'510.9
2017-Dec-30 09:30N 01°14' E 103°27'612.1
2017-Dec-30 08:59N 01°13' E 103°33'612.4
2017-Dec-30 08:30N 01°11' E 103°38'612.1
2017-Dec-30 08:00N 01°09' E 103°44'611.9
2017-Dec-30 07:30N 01°11' E 103°49'611.2
2017-Dec-30 07:00N 01°13' E 103°54'3 5.4
2017-Dec-30 06:30N 01°15' E 103°56'1 2.5
2017-Dec-30 05:58N 01°14' E 103°55'0 0.1
2017-Dec-30 05:25N 01°14' E 103°55'0 0.0
2017-Dec-30 04:49N 01°14' E 103°55'0 0.1
2017-Dec-30 04:22N 01°14' E 103°55'0 0.1
2017-Dec-30 03:55N 01°14' E 103°55'0 0.0
2017-Dec-30 03:22N 01°14' E 103°55'0 0.0
2017-Dec-30 02:55N 01°14' E 103°55'0 0.1
2017-Dec-30 02:10N 01°14' E 103°55'0 0.0
2017-Dec-30 01:58N 01°14' E 103°55'0 0.0
2017-Dec-30 01:28N 01°14' E 103°55'0 0.0
2017-Dec-30 00:52N 01°14' E 103°55'0 0.0
2017-Dec-30 00:22N 01°14' E 103°55'0 0.0
2017-Dec-29 23:55N 01°14' E 103°55'0 0.0
2017-Dec-29 23:19N 01°14' E 103°55'0 0.0
2017-Dec-29 22:52N 01°14' E 103°55'0 0.0
2017-Dec-29 22:28N 01°14' E 103°55'0 0.1
2017-Dec-29 21:58N 01°14' E 103°55'0 0.0
2017-Dec-29 21:25N 01°14' E 103°55'0 0.0
2017-Dec-29 20:49N 01°14' E 103°55'0 0.1
2017-Dec-29 20:28N 01°14' E 103°55'0 0.0
2017-Dec-29 19:58N 01°14' E 103°55'0 0.0
2017-Dec-29 19:22N 01°14' E 103°55'0 0.0
2017-Dec-29 18:55N 01°14' E 103°55'0 0.0
2017-Dec-29 18:25N 01°14' E 103°55'0 0.0
2017-Dec-29 17:22N 01°14' E 103°55'0 0.0
2017-Dec-29 16:58N 01°14' E 103°55'0 0.0
2017-Dec-29 16:25N 01°14' E 103°55'0 0.0
2017-Dec-29 15:52N 01°14' E 103°55'0 0.0
2017-Dec-29 15:28N 01°14' E 103°55'0 0.0
2017-Dec-29 14:52N 01°14' E 103°55'0 0.1
2017-Dec-29 14:28N 01°14' E 103°55'0 0.0
2017-Dec-29 13:58N 01°14' E 103°55'0 0.0
2017-Dec-29 13:13N 01°14' E 103°55'0 0.0
2017-Dec-29 12:58N 01°14' E 103°55'0 0.0
2017-Dec-29 12:28N 01°14' E 103°55'0 0.0
2017-Dec-29 11:46N 01°14' E 103°55'0 0.0
2017-Dec-29 11:25N 01°14' E 103°55'0 0.0
2017-Dec-29 10:58N 01°14' E 103°55'0 0.0
2017-Dec-29 10:28N 01°14' E 103°55'0 0.0
2017-Dec-29 09:46N 01°14' E 103°55'0 0.0
2017-Dec-29 09:16N 01°14' E 103°55'0 0.0
2017-Dec-29 08:58N 01°14' E 103°55'0 0.0
2017-Dec-29 08:22N 01°14' E 103°55'0 0.0
2017-Dec-29 07:40N 01°14' E 103°55'0 0.1
2017-Dec-29 07:28N 01°14' E 103°55'0 0.1
2017-Dec-29 06:58N 01°14' E 103°55'0 0.0
2017-Dec-29 06:16N 01°14' E 103°55'0 0.0
2017-Dec-29 05:58N 01°14' E 103°55'0 0.0
2017-Dec-29 05:13N 01°14' E 103°55'0 0.2
2017-Dec-29 04:55N 01°14' E 103°55'0 0.0
2017-Dec-29 04:28N 01°14' E 103°55'0 0.1
2017-Dec-29 03:58N 01°14' E 103°55'0 0.0
2017-Dec-29 03:13N 01°14' E 103°55'0 0.0
2017-Dec-29 02:49N 01°14' E 103°55'0 0.1
2017-Dec-29 00:58N 01°15' E 103°55'0 0.0
2017-Dec-29 00:13N 01°14' E 103°55'0 0.0
2017-Dec-28 23:43N 01°14' E 103°55'0 0.0
2017-Dec-28 23:25N 01°14' E 103°55'0 0.0
2017-Dec-28 22:58N 01°14' E 103°55'0 0.0
2017-Dec-28 22:22N 01°14' E 103°55'0 0.1
2017-Dec-28 21:58N 01°15' E 103°55'0 0.7
2017-Dec-28 21:30N 01°15' E 103°55'2 3.6
2017-Dec-28 20:58N 01°16' E 103°57'2 3.7
2017-Dec-28 20:30N 01°16' E 103°59'3 6.5
2017-Dec-28 19:59N 01°16' E 104°02'4 7.4
2017-Dec-28 19:30N 01°16' E 104°06'4 7.0
2017-Dec-28 18:58N 01°17' E 104°09'3 6.7
2017-Dec-28 18:30N 01°17' E 104°13'4 7.0
2017-Dec-28 17:57N 01°18' E 104°16'  
2017-Dec-21 21:58N 21°51' E 121°25'4 8.5
2017-Dec-21 21:30N 21°55' E 121°25'4 8.4
2017-Dec-21 21:00N 21°59' E 121°25'5 8.4
2017-Dec-21 20:27N 22°04' E 121°25'4 8.2
2017-Dec-21 20:00N 22°07' E 121°25'6 7.7
2017-Dec-21 19:15N 22°13' E 121°25'41 7.8
2017-Dec-21 14:02N 22°51' E 121°42'0 7.3
2017-Dec-21 14:00N 22°51' E 121°42'67 7.7
2017-Dec-21 05:23N 23°52' E 122°12'3 8.2
2017-Dec-21 05:00N 23°54' E 122°13'4 8.5
2017-Dec-21 04:30N 23°58' E 122°15'4 8.4
2017-Dec-21 04:00N 24°02' E 122°17'4 8.3
2017-Dec-21 03:31N 24°06' E 122°19'4 8.3
2017-Dec-21 03:00N 24°09' E 122°21'4 8.3
2017-Dec-21 02:30N 24°13' E 122°23'4 8.3
2017-Dec-21 02:00N 24°17' E 122°25'4 8.0
2017-Dec-21 01:30N 24°21' E 122°27'4 8.0
2017-Dec-21 01:01N 24°24' E 122°29'4 8.1
2017-Dec-21 00:30N 24°28' E 122°31'4 8.2
2017-Dec-21 00:00N 24°32' E 122°33'4 8.3
2017-Dec-20 23:30N 24°35' E 122°35'5 9.1
2017-Dec-20 23:00N 24°39' E 122°37'5 9.3
2017-Dec-20 22:30N 24°44' E 122°39'5 9.3
2017-Dec-20 22:00N 24°48' E 122°41'4 9.0
2017-Dec-20 21:30N 24°52' E 122°43'4 8.9
2017-Dec-20 21:01N 24°56' E 122°45'5 9.0
2017-Dec-20 20:30N 25°00' E 122°47'4 9.0
2017-Dec-20 20:00N 25°04' E 122°50'4 8.9
2017-Dec-20 19:30N 25°08' E 122°52'4 8.9
2017-Dec-20 19:00N 25°12' E 122°53'4 8.4
2017-Dec-20 18:30N 25°16' E 122°55'4 8.3
2017-Dec-20 18:00N 25°20' E 122°57'4 8.7
2017-Dec-20 17:30N 25°24' E 122°60'  

Dump ship's entire track history